sensor_id;sensor_type;location;lat;lon;timestamp;temperature;humidity
67101;DHT22;54019;61.746;16.106;2023-02-28T00:02:11;22.10;25.70
67101;DHT22;54019;61.746;16.106;2023-02-28T00:04:37;22.20;25.70
67101;DHT22;54019;61.746;16.106;2023-02-28T00:07:03;22.20;25.80
67101;DHT22;54019;61.746;16.106;2023-02-28T00:09:29;22.20;25.70
67101;DHT22;54019;61.746;16.106;2023-02-28T00:11:55;22.20;25.70
67101;DHT22;54019;61.746;16.106;2023-02-28T00:14:20;22.30;25.70
67101;DHT22;54019;61.746;16.106;2023-02-28T00:16:47;22.20;25.60
67101;DHT22;54019;61.746;16.106;2023-02-28T00:19:13;22.20;25.60
67101;DHT22;54019;61.746;16.106;2023-02-28T00:21:39;22.20;25.60
67101;DHT22;54019;61.746;16.106;2023-02-28T00:24:05;22.20;25.60
67101;DHT22;54019;61.746;16.106;2023-02-28T00:26:31;22.10;25.60
67101;DHT22;54019;61.746;16.106;2023-02-28T00:28:57;22.10;25.60
67101;DHT22;54019;61.746;16.106;2023-02-28T00:31:22;22.10;25.60
67101;DHT22;54019;61.746;16.106;2023-02-28T00:33:50;22.10;25.60
67101;DHT22;54019;61.746;16.106;2023-02-28T00:36:15;22.00;25.80
67101;DHT22;54019;61.746;16.106;2023-02-28T00:38:42;22.10;26.10
67101;DHT22;54019;61.746;16.106;2023-02-28T00:41:08;22.10;26.20
67101;DHT22;54019;61.746;16.106;2023-02-28T00:43:36;22.00;25.80
67101;DHT22;54019;61.746;16.106;2023-02-28T00:46:03;22.10;25.70
67101;DHT22;54019;61.746;16.106;2023-02-28T00:48:29;22.10;25.70
67101;DHT22;54019;61.746;16.106;2023-02-28T00:50:57;22.20;25.80
67101;DHT22;54019;61.746;16.106;2023-02-28T00:53:23;22.20;25.70
67101;DHT22;54019;61.746;16.106;2023-02-28T00:55:49;22.20;25.70
67101;DHT22;54019;61.746;16.106;2023-02-28T00:58:15;22.20;25.70
67101;DHT22;54019;61.746;16.106;2023-02-28T01:00:40;22.20;25.70
67101;DHT22;54019;61.746;16.106;2023-02-28T01:03:06;22.20;25.70
67101;DHT22;54019;61.746;16.106;2023-02-28T01:05:32;22.20;25.80
67101;DHT22;54019;61.746;16.106;2023-02-28T01:07:59;22.20;25.80
67101;DHT22;54019;61.746;16.106;2023-02-28T01:10:25;22.10;26.50
67101;DHT22;54019;61.746;16.106;2023-02-28T01:12:51;22.10;25.90
67101;DHT22;54019;61.746;16.106;2023-02-28T01:15:17;22.00;25.70
67101;DHT22;54019;61.746;16.106;2023-02-28T01:17:43;22.00;25.80
67101;DHT22;54019;61.746;16.106;2023-02-28T01:20:09;22.00;25.80
67101;DHT22;54019;61.746;16.106;2023-02-28T01:22:35;22.00;25.60
67101;DHT22;54019;61.746;16.106;2023-02-28T01:25:03;22.00;25.60
67101;DHT22;54019;61.746;16.106;2023-02-28T01:27:29;22.00;25.70
67101;DHT22;54019;61.746;16.106;2023-02-28T01:29:55;22.10;25.80
67101;DHT22;54019;61.746;16.106;2023-02-28T01:32:20;22.10;25.70
67101;DHT22;54019;61.746;16.106;2023-02-28T01:34:46;22.10;25.70
67101;DHT22;54019;61.746;16.106;2023-02-28T01:37:12;22.20;25.70
67101;DHT22;54019;61.746;16.106;2023-02-28T01:39:38;22.20;25.60
67101;DHT22;54019;61.746;16.106;2023-02-28T01:42:05;22.20;25.50
67101;DHT22;54019;61.746;16.106;2023-02-28T01:47:41;22.10;25.40
67101;DHT22;54019;61.746;16.106;2023-02-28T01:50:12;22.10;25.50
67101;DHT22;54019;61.746;16.106;2023-02-28T01:52:40;22.10;25.50
67101;DHT22;54019;61.746;16.106;2023-02-28T01:55:07;22.00;25.40
67101;DHT22;54019;61.746;16.106;2023-02-28T01:57:38;22.00;25.50
67101;DHT22;54019;61.746;16.106;2023-02-28T02:00:07;22.00;26.00
67101;DHT22;54019;61.746;16.106;2023-02-28T02:02:34;22.00;26.20
67101;DHT22;54019;61.746;16.106;2023-02-28T02:05:03;22.00;25.90
67101;DHT22;54019;61.746;16.106;2023-02-28T02:07:32;22.00;25.70
67101;DHT22;54019;61.746;16.106;2023-02-28T02:10:04;22.00;25.50
67101;DHT22;54019;61.746;16.106;2023-02-28T02:12:41;22.00;25.40
67101;DHT22;54019;61.746;16.106;2023-02-28T02:15:14;22.10;25.50
67101;DHT22;54019;61.746;16.106;2023-02-28T02:17:44;22.20;25.40
67101;DHT22;54019;61.746;16.106;2023-02-28T02:23:31;22.20;25.40
67101;DHT22;54019;61.746;16.106;2023-02-28T02:26:11;22.10;25.50
67101;DHT22;54019;61.746;16.106;2023-02-28T02:29:01;22.10;25.40
67101;DHT22;54019;61.746;16.106;2023-02-28T02:34:53;22.10;25.40
67101;DHT22;54019;61.746;16.106;2023-02-28T02:37:29;22.00;25.30
67101;DHT22;54019;61.746;16.106;2023-02-28T02:40:03;22.00;25.40
67101;DHT22;54019;61.746;16.106;2023-02-28T02:42:36;22.00;25.30
67101;DHT22;54019;61.746;16.106;2023-02-28T02:45:08;22.00;25.50
67101;DHT22;54019;61.746;16.106;2023-02-28T02:47:35;21.90;25.80
67101;DHT22;54019;61.746;16.106;2023-02-28T02:50:06;21.90;25.90
67101;DHT22;54019;61.746;16.106;2023-02-28T02:52:38;21.90;25.80
67101;DHT22;54019;61.746;16.106;2023-02-28T02:55:07;22.00;25.60
67101;DHT22;54019;61.746;16.106;2023-02-28T02:57:36;22.00;25.50
67101;DHT22;54019;61.746;16.106;2023-02-28T03:00:04;22.10;25.60
67101;DHT22;54019;61.746;16.106;2023-02-28T03:02:32;22.10;25.50
67101;DHT22;54019;61.746;16.106;2023-02-28T03:05:01;22.10;25.50
67101;DHT22;54019;61.746;16.106;2023-02-28T03:07:29;22.20;25.50
67101;DHT22;54019;61.746;16.106;2023-02-28T03:09:56;22.20;25.50
67101;DHT22;54019;61.746;16.106;2023-02-28T03:12:26;22.10;25.50
67101;DHT22;54019;61.746;16.106;2023-02-28T03:14:59;22.10;25.40
67101;DHT22;54019;61.746;16.106;2023-02-28T03:17:49;22.10;25.50
67101;DHT22;54019;61.746;16.106;2023-02-28T03:20:27;22.00;25.40
67101;DHT22;54019;61.746;16.106;2023-02-28T03:23:07;22.00;25.40
67101;DHT22;54019;61.746;16.106;2023-02-28T03:25:39;22.00;25.50
67101;DHT22;54019;61.746;16.106;2023-02-28T03:28:17;22.00;25.40
67101;DHT22;54019;61.746;16.106;2023-02-28T03:30:49;22.00;25.50
67101;DHT22;54019;61.746;16.106;2023-02-28T03:33:18;21.90;25.50
67101;DHT22;54019;61.746;16.106;2023-02-28T03:35:48;21.90;25.60
67101;DHT22;54019;61.746;16.106;2023-02-28T03:38:22;21.90;25.50
67101;DHT22;54019;61.746;16.106;2023-02-28T03:40:51;21.90;25.50
67101;DHT22;54019;61.746;16.106;2023-02-28T03:43:23;22.00;25.40
67101;DHT22;54019;61.746;16.106;2023-02-28T03:45:51;22.00;25.40
67101;DHT22;54019;61.746;16.106;2023-02-28T03:48:22;22.10;25.50
67101;DHT22;54019;61.746;16.106;2023-02-28T03:50:52;22.10;25.30
67101;DHT22;54019;61.746;16.106;2023-02-28T03:53:27;22.20;25.30
67101;DHT22;54019;61.746;16.106;2023-02-28T03:55:56;22.20;25.30
67101;DHT22;54019;61.746;16.106;2023-02-28T03:58:26;22.10;25.30
67101;DHT22;54019;61.746;16.106;2023-02-28T04:01:00;22.10;25.30
67101;DHT22;54019;61.746;16.106;2023-02-28T04:03:28;22.10;25.20
67101;DHT22;54019;61.746;16.106;2023-02-28T04:05:55;22.00;25.10
67101;DHT22;54019;61.746;16.106;2023-02-28T04:08:23;22.00;25.20
67101;DHT22;54019;61.746;16.106;2023-02-28T04:10:51;22.00;25.50
67101;DHT22;54019;61.746;16.106;2023-02-28T04:13:18;22.00;25.70
67101;DHT22;54019;61.746;16.106;2023-02-28T04:15:43;21.90;25.70
67101;DHT22;54019;61.746;16.106;2023-02-28T04:18:09;21.90;25.80
67101;DHT22;54019;61.746;16.106;2023-02-28T04:20:35;21.90;25.70
67101;DHT22;54019;61.746;16.106;2023-02-28T04:23:01;21.90;25.30
67101;DHT22;54019;61.746;16.106;2023-02-28T04:25:28;21.90;25.40
67101;DHT22;54019;61.746;16.106;2023-02-28T04:27:54;21.90;25.40
67101;DHT22;54019;61.746;16.106;2023-02-28T04:30:20;22.00;25.20
67101;DHT22;54019;61.746;16.106;2023-02-28T04:32:46;22.00;25.10
67101;DHT22;54019;61.746;16.106;2023-02-28T04:35:11;22.10;25.30
67101;DHT22;54019;61.746;16.106;2023-02-28T04:37:37;22.10;25.20
67101;DHT22;54019;61.746;16.106;2023-02-28T04:40:04;22.10;25.20
67101;DHT22;54019;61.746;16.106;2023-02-28T04:42:31;22.10;25.20
67101;DHT22;54019;61.746;16.106;2023-02-28T04:44:57;22.10;25.20
67101;DHT22;54019;61.746;16.106;2023-02-28T04:47:22;22.00;25.10
67101;DHT22;54019;61.746;16.106;2023-02-28T04:49:48;22.00;25.10
67101;DHT22;54019;61.746;16.106;2023-02-28T04:52:14;22.00;25.10
67101;DHT22;54019;61.746;16.106;2023-02-28T04:54:40;21.90;25.10
67101;DHT22;54019;61.746;16.106;2023-02-28T04:57:06;21.90;25.50
67101;DHT22;54019;61.746;16.106;2023-02-28T04:59:33;21.90;26.90
67101;DHT22;54019;61.746;16.106;2023-02-28T05:01:59;21.90;27.20
67101;DHT22;54019;61.746;16.106;2023-02-28T05:04:24;21.90;27.10
67101;DHT22;54019;61.746;16.106;2023-02-28T05:06:50;21.90;26.30
67101;DHT22;54019;61.746;16.106;2023-02-28T05:09:16;21.90;26.20
67101;DHT22;54019;61.746;16.106;2023-02-28T05:11:42;21.90;26.00
67101;DHT22;54019;61.746;16.106;2023-02-28T05:14:12;22.00;25.70
67101;DHT22;54019;61.746;16.106;2023-02-28T05:16:39;22.00;25.60
67101;DHT22;54019;61.746;16.106;2023-02-28T05:19:05;22.00;25.60
67101;DHT22;54019;61.746;16.106;2023-02-28T05:21:33;22.10;25.60
67101;DHT22;54019;61.746;16.106;2023-02-28T05:24:01;22.10;25.60
67101;DHT22;54019;61.746;16.106;2023-02-28T05:26:27;22.10;25.70
67101;DHT22;54019;61.746;16.106;2023-02-28T05:28:54;22.10;25.90
67101;DHT22;54019;61.746;16.106;2023-02-28T05:31:19;22.00;25.40
67101;DHT22;54019;61.746;16.106;2023-02-28T05:33:47;22.00;25.50
67101;DHT22;54019;61.746;16.106;2023-02-28T05:36:13;22.00;25.50
67101;DHT22;54019;61.746;16.106;2023-02-28T05:38:39;22.00;25.60
67101;DHT22;54019;61.746;16.106;2023-02-28T05:41:06;22.00;25.90
67101;DHT22;54019;61.746;16.106;2023-02-28T05:43:32;22.00;25.70
67101;DHT22;54019;61.746;16.106;2023-02-28T05:45:57;21.90;26.40
67101;DHT22;54019;61.746;16.106;2023-02-28T05:48:23;21.80;26.00
67101;DHT22;54019;61.746;16.106;2023-02-28T05:50:50;21.80;27.20
67101;DHT22;54019;61.746;16.106;2023-02-28T05:53:16;21.90;26.50
67101;DHT22;54019;61.746;16.106;2023-02-28T05:55:42;21.90;26.60
67101;DHT22;54019;61.746;16.106;2023-02-28T05:58:07;21.90;26.60
67101;DHT22;54019;61.746;16.106;2023-02-28T06:00:34;22.00;26.50
67101;DHT22;54019;61.746;16.106;2023-02-28T06:03:00;22.00;26.40
67101;DHT22;54019;61.746;16.106;2023-02-28T06:05:26;22.10;26.40
67101;DHT22;54019;61.746;16.106;2023-02-28T06:07:53;22.20;26.70
67101;DHT22;54019;61.746;16.106;2023-02-28T06:10:19;22.30;26.50
67101;DHT22;54019;61.746;16.106;2023-02-28T06:12:45;22.30;26.80
67101;DHT22;54019;61.746;16.106;2023-02-28T06:15:13;22.30;26.50
67101;DHT22;54019;61.746;16.106;2023-02-28T06:17:39;22.20;26.30
67101;DHT22;54019;61.746;16.106;2023-02-28T06:20:06;22.20;26.40
67101;DHT22;54019;61.746;16.106;2023-02-28T06:22:32;22.10;26.60
67101;DHT22;54019;61.746;16.106;2023-02-28T06:24:59;22.10;26.60
67101;DHT22;54019;61.746;16.106;2023-02-28T06:27:25;22.10;26.60
67101;DHT22;54019;61.746;16.106;2023-02-28T06:29:53;22.00;26.60
67101;DHT22;54019;61.746;16.106;2023-02-28T06:32:19;22.00;26.80
67101;DHT22;54019;61.746;16.106;2023-02-28T06:34:45;22.00;26.70
67101;DHT22;54019;61.746;16.106;2023-02-28T06:37:11;22.00;26.40
67101;DHT22;54019;61.746;16.106;2023-02-28T06:39:37;22.00;26.20
67101;DHT22;54019;61.746;16.106;2023-02-28T06:42:04;22.10;26.20
67101;DHT22;54019;61.746;16.106;2023-02-28T06:44:30;22.10;26.00
67101;DHT22;54019;61.746;16.106;2023-02-28T06:46:56;22.20;25.90
67101;DHT22;54019;61.746;16.106;2023-02-28T06:49:21;22.20;25.90
67101;DHT22;54019;61.746;16.106;2023-02-28T06:51:47;22.20;25.80
67101;DHT22;54019;61.746;16.106;2023-02-28T06:54:13;22.20;25.80
67101;DHT22;54019;61.746;16.106;2023-02-28T06:56:39;22.20;25.70
67101;DHT22;54019;61.746;16.106;2023-02-28T06:59:06;22.20;25.70
67101;DHT22;54019;61.746;16.106;2023-02-28T07:01:32;22.20;25.70
67101;DHT22;54019;61.746;16.106;2023-02-28T07:03:58;22.20;25.70
67101;DHT22;54019;61.746;16.106;2023-02-28T07:06:24;22.20;25.90
67101;DHT22;54019;61.746;16.106;2023-02-28T07:08:51;22.10;26.10
67101;DHT22;54019;61.746;16.106;2023-02-28T07:11:18;22.10;26.30
67101;DHT22;54019;61.746;16.106;2023-02-28T07:13:44;22.10;26.90
67101;DHT22;54019;61.746;16.106;2023-02-28T07:16:11;22.10;26.70
67101;DHT22;54019;61.746;16.106;2023-02-28T07:18:37;22.10;27.00
67101;DHT22;54019;61.746;16.106;2023-02-28T07:21:04;22.10;26.50
67101;DHT22;54019;61.746;16.106;2023-02-28T07:23:30;22.20;26.30
67101;DHT22;54019;61.746;16.106;2023-02-28T07:25:56;22.20;26.10
67101;DHT22;54019;61.746;16.106;2023-02-28T07:28:22;22.20;25.80
67101;DHT22;54019;61.746;16.106;2023-02-28T07:30:48;22.20;25.60
67101;DHT22;54019;61.746;16.106;2023-02-28T07:33:15;22.30;25.80
67101;DHT22;54019;61.746;16.106;2023-02-28T07:35:41;22.30;26.90
67101;DHT22;54019;61.746;16.106;2023-02-28T07:38:07;22.30;26.90
67101;DHT22;54019;61.746;16.106;2023-02-28T07:40:33;22.30;26.90
67101;DHT22;54019;61.746;16.106;2023-02-28T07:42:59;22.40;26.80
67101;DHT22;54019;61.746;16.106;2023-02-28T07:45:25;22.40;26.80
67101;DHT22;54019;61.746;16.106;2023-02-28T07:47:51;22.40;26.50
67101;DHT22;54019;61.746;16.106;2023-02-28T07:50:18;22.40;26.20
67101;DHT22;54019;61.746;16.106;2023-02-28T07:52:44;22.40;26.30
67101;DHT22;54019;61.746;16.106;2023-02-28T07:55:10;22.40;26.20
67101;DHT22;54019;61.746;16.106;2023-02-28T07:57:36;22.40;26.20
67101;DHT22;54019;61.746;16.106;2023-02-28T08:00:02;22.40;26.20
67101;DHT22;54019;61.746;16.106;2023-02-28T08:02:28;22.40;26.00
67101;DHT22;54019;61.746;16.106;2023-02-28T08:04:54;22.30;26.00
67101;DHT22;54019;61.746;16.106;2023-02-28T08:07:21;22.40;25.80
67101;DHT22;54019;61.746;16.106;2023-02-28T08:09:47;22.50;25.80
67101;DHT22;54019;61.746;16.106;2023-02-28T08:12:12;22.50;25.60
67101;DHT22;54019;61.746;16.106;2023-02-28T08:14:38;22.60;25.40
67101;DHT22;54019;61.746;16.106;2023-02-28T08:17:04;22.70;25.40
67101;DHT22;54019;61.746;16.106;2023-02-28T08:19:30;22.70;25.40
67101;DHT22;54019;61.746;16.106;2023-02-28T08:21:56;22.80;33.00
67101;DHT22;54019;61.746;16.106;2023-02-28T08:24:24;23.00;32.80
67101;DHT22;54019;61.746;16.106;2023-02-28T08:26:49;23.00;31.00
67101;DHT22;54019;61.746;16.106;2023-02-28T08:29:15;23.10;29.90
67101;DHT22;54019;61.746;16.106;2023-02-28T08:31:41;23.10;27.90
67101;DHT22;54019;61.746;16.106;2023-02-28T08:34:08;23.10;27.90
67101;DHT22;54019;61.746;16.106;2023-02-28T08:36:34;23.10;27.60
67101;DHT22;54019;61.746;16.106;2023-02-28T08:39:00;23.10;27.20
67101;DHT22;54019;61.746;16.106;2023-02-28T08:41:27;23.00;26.80
67101;DHT22;54019;61.746;16.106;2023-02-28T08:43:53;23.00;26.80
67101;DHT22;54019;61.746;16.106;2023-02-28T08:46:19;23.00;26.70
67101;DHT22;54019;61.746;16.106;2023-02-28T08:48:45;23.00;26.50
67101;DHT22;54019;61.746;16.106;2023-02-28T08:51:12;22.90;27.90
67101;DHT22;54019;61.746;16.106;2023-02-28T08:53:39;23.00;28.80
67101;DHT22;54019;61.746;16.106;2023-02-28T08:56:07;23.10;29.30
67101;DHT22;54019;61.746;16.106;2023-02-28T08:58:35;23.10;28.80
67101;DHT22;54019;61.746;16.106;2023-02-28T09:01:06;23.20;27.60
67101;DHT22;54019;61.746;16.106;2023-02-28T09:03:32;23.30;27.70
67101;DHT22;54019;61.746;16.106;2023-02-28T09:06:00;23.30;27.40
67101;DHT22;54019;61.746;16.106;2023-02-28T09:08:27;23.30;27.80
67101;DHT22;54019;61.746;16.106;2023-02-28T09:10:54;23.40;29.10
67101;DHT22;54019;61.746;16.106;2023-02-28T09:13:20;23.40;29.20
67101;DHT22;54019;61.746;16.106;2023-02-28T09:15:47;23.40;28.40
67101;DHT22;54019;61.746;16.106;2023-02-28T09:18:13;23.40;27.60
67101;DHT22;54019;61.746;16.106;2023-02-28T09:20:39;23.40;27.50
67101;DHT22;54019;61.746;16.106;2023-02-28T09:23:05;23.40;27.30
67101;DHT22;54019;61.746;16.106;2023-02-28T09:25:30;23.40;27.00
67101;DHT22;54019;61.746;16.106;2023-02-28T09:27:56;23.40;27.00
67101;DHT22;54019;61.746;16.106;2023-02-28T09:30:22;23.40;26.80
67101;DHT22;54019;61.746;16.106;2023-02-28T09:32:49;23.40;26.90
67101;DHT22;54019;61.746;16.106;2023-02-28T09:35:15;23.30;26.90
67101;DHT22;54019;61.746;16.106;2023-02-28T09:37:41;23.30;26.50
67101;DHT22;54019;61.746;16.106;2023-02-28T09:40:09;23.30;26.60
67101;DHT22;54019;61.746;16.106;2023-02-28T09:42:35;23.30;26.40
67101;DHT22;54019;61.746;16.106;2023-02-28T09:45:05;23.30;26.20
67101;DHT22;54019;61.746;16.106;2023-02-28T09:47:35;23.30;26.20
67101;DHT22;54019;61.746;16.106;2023-02-28T09:50:15;23.30;26.00
67101;DHT22;54019;61.746;16.106;2023-02-28T09:52:44;23.30;26.20
67101;DHT22;54019;61.746;16.106;2023-02-28T09:55:19;23.40;26.80
67101;DHT22;54019;61.746;16.106;2023-02-28T09:57:46;23.50;26.80
67101;DHT22;54019;61.746;16.106;2023-02-28T10:00:16;23.50;26.00
67101;DHT22;54019;61.746;16.106;2023-02-28T10:02:52;23.50;26.70
67101;DHT22;54019;61.746;16.106;2023-02-28T10:05:23;23.50;26.20
67101;DHT22;54019;61.746;16.106;2023-02-28T10:08:03;23.50;26.50
67101;DHT22;54019;61.746;16.106;2023-02-28T10:10:35;23.40;26.20
67101;DHT22;54019;61.746;16.106;2023-02-28T10:13:05;23.40;26.20
67101;DHT22;54019;61.746;16.106;2023-02-28T10:15:33;23.40;26.20
67101;DHT22;54019;61.746;16.106;2023-02-28T10:18:02;23.40;26.60
67101;DHT22;54019;61.746;16.106;2023-02-28T10:20:33;23.40;26.40
67101;DHT22;54019;61.746;16.106;2023-02-28T10:23:04;23.40;26.50
67101;DHT22;54019;61.746;16.106;2023-02-28T10:25:30;23.40;26.30
67101;DHT22;54019;61.746;16.106;2023-02-28T10:27:59;23.40;26.30
67101;DHT22;54019;61.746;16.106;2023-02-28T10:30:26;23.40;26.10
67101;DHT22;54019;61.746;16.106;2023-02-28T10:32:52;23.40;26.20
67101;DHT22;54019;61.746;16.106;2023-02-28T10:35:20;23.40;26.30
67101;DHT22;54019;61.746;16.106;2023-02-28T10:37:49;23.40;26.00
67101;DHT22;54019;61.746;16.106;2023-02-28T10:40:33;23.40;25.90
67101;DHT22;54019;61.746;16.106;2023-02-28T10:43:01;23.40;26.40
67101;DHT22;54019;61.746;16.106;2023-02-28T10:45:28;23.40;26.50
67101;DHT22;54019;61.746;16.106;2023-02-28T10:47:56;23.50;26.30
67101;DHT22;54019;61.746;16.106;2023-02-28T10:50:37;23.50;26.70
67101;DHT22;54019;61.746;16.106;2023-02-28T10:56:00;23.60;25.90
67101;DHT22;54019;61.746;16.106;2023-02-28T10:58:29;23.60;25.60
67101;DHT22;54019;61.746;16.106;2023-02-28T11:00:55;23.70;25.50
67101;DHT22;54019;61.746;16.106;2023-02-28T11:03:34;23.70;25.70
67101;DHT22;54019;61.746;16.106;2023-02-28T11:06:05;23.70;25.70
67101;DHT22;54019;61.746;16.106;2023-02-28T11:08:34;23.70;25.90
67101;DHT22;54019;61.746;16.106;2023-02-28T11:11:03;23.70;25.70
67101;DHT22;54019;61.746;16.106;2023-02-28T11:13:32;23.70;25.60
67101;DHT22;54019;61.746;16.106;2023-02-28T11:16:02;23.70;25.80
67101;DHT22;54019;61.746;16.106;2023-02-28T11:18:30;23.60;26.10
67101;DHT22;54019;61.746;16.106;2023-02-28T11:20:59;23.60;25.70
67101;DHT22;54019;61.746;16.106;2023-02-28T11:23:30;23.50;25.70
67101;DHT22;54019;61.746;16.106;2023-02-28T11:26:00;23.40;25.60
67101;DHT22;54019;61.746;16.106;2023-02-28T11:28:29;23.40;25.80
67101;DHT22;54019;61.746;16.106;2023-02-28T11:31:14;23.40;25.70
67101;DHT22;54019;61.746;16.106;2023-02-28T11:33:42;23.40;25.50
67101;DHT22;54019;61.746;16.106;2023-02-28T11:36:12;23.40;25.60
67101;DHT22;54019;61.746;16.106;2023-02-28T11:38:38;23.30;25.50
67101;DHT22;54019;61.746;16.106;2023-02-28T11:41:33;23.30;25.60
67101;DHT22;54019;61.746;16.106;2023-02-28T11:44:19;23.30;25.50
67101;DHT22;54019;61.746;16.106;2023-02-28T11:46:49;23.30;25.50
67101;DHT22;54019;61.746;16.106;2023-02-28T11:49:28;23.30;25.40
67101;DHT22;54019;61.746;16.106;2023-02-28T11:51:59;23.20;25.30
67101;DHT22;54019;61.746;16.106;2023-02-28T11:54:41;23.30;25.20
67101;DHT22;54019;61.746;16.106;2023-02-28T11:57:29;23.30;25.00
67101;DHT22;54019;61.746;16.106;2023-02-28T12:00:03;23.30;25.00
67101;DHT22;54019;61.746;16.106;2023-02-28T12:02:48;23.30;25.00
67101;DHT22;54019;61.746;16.106;2023-02-28T12:05:25;23.30;24.80
67101;DHT22;54019;61.746;16.106;2023-02-28T12:08:02;23.30;24.80
67101;DHT22;54019;61.746;16.106;2023-02-28T12:10:31;23.30;24.50
67101;DHT22;54019;61.746;16.106;2023-02-28T12:13:10;23.30;24.80
67101;DHT22;54019;61.746;16.106;2023-02-28T12:15:55;23.20;24.80
67101;DHT22;54019;61.746;16.106;2023-02-28T12:18:42;23.20;24.80
67101;DHT22;54019;61.746;16.106;2023-02-28T12:21:18;23.20;25.50
67101;DHT22;54019;61.746;16.106;2023-02-28T12:24:00;23.10;25.00
67101;DHT22;54019;61.746;16.106;2023-02-28T12:26:36;23.10;24.90
67101;DHT22;54019;61.746;16.106;2023-02-28T12:29:10;23.00;24.90
67101;DHT22;54019;61.746;16.106;2023-02-28T12:31:40;23.10;25.00
67101;DHT22;54019;61.746;16.106;2023-02-28T12:34:11;23.00;24.90
67101;DHT22;54019;61.746;16.106;2023-02-28T12:36:39;23.00;24.80
67101;DHT22;54019;61.746;16.106;2023-02-28T12:39:10;23.00;24.90
67101;DHT22;54019;61.746;16.106;2023-02-28T12:41:41;23.00;24.90
67101;DHT22;54019;61.746;16.106;2023-02-28T12:44:12;22.90;25.00
67101;DHT22;54019;61.746;16.106;2023-02-28T12:46:42;22.90;25.00
67101;DHT22;54019;61.746;16.106;2023-02-28T12:49:12;22.90;25.10
67101;DHT22;54019;61.746;16.106;2023-02-28T12:51:39;22.90;25.00
67101;DHT22;54019;61.746;16.106;2023-02-28T12:54:12;22.90;24.90
67101;DHT22;54019;61.746;16.106;2023-02-28T12:56:44;22.90;24.70
67101;DHT22;54019;61.746;16.106;2023-02-28T12:59:20;22.90;24.70
67101;DHT22;54019;61.746;16.106;2023-02-28T13:05:06;23.00;24.70
67101;DHT22;54019;61.746;16.106;2023-02-28T13:08:00;23.00;24.60
67101;DHT22;54019;61.746;16.106;2023-02-28T13:10:39;23.00;24.50
67101;DHT22;54019;61.746;16.106;2023-02-28T13:13:05;23.00;24.50
67101;DHT22;54019;61.746;16.106;2023-02-28T13:15:33;23.00;24.50
67101;DHT22;54019;61.746;16.106;2023-02-28T13:17:59;23.00;24.50
67101;DHT22;54019;61.746;16.106;2023-02-28T13:20:26;23.00;24.40
67101;DHT22;54019;61.746;16.106;2023-02-28T13:22:54;22.90;24.50
67101;DHT22;54019;61.746;16.106;2023-02-28T13:25:51;22.90;24.50
67101;DHT22;54019;61.746;16.106;2023-02-28T13:31:32;22.90;24.60
67101;DHT22;54019;61.746;16.106;2023-02-28T13:34:06;22.90;24.80
67101;DHT22;54019;61.746;16.106;2023-02-28T13:36:38;22.80;25.00
67101;DHT22;54019;61.746;16.106;2023-02-28T13:42:34;22.80;25.20
67101;DHT22;54019;61.746;16.106;2023-02-28T13:45:22;22.80;25.40
67101;DHT22;54019;61.746;16.106;2023-02-28T13:47:54;22.80;25.80
67101;DHT22;54019;61.746;16.106;2023-02-28T13:50:24;22.80;25.80
67101;DHT22;54019;61.746;16.106;2023-02-28T13:55:45;22.80;26.00
67101;DHT22;54019;61.746;16.106;2023-02-28T13:58:25;22.70;26.20
67101;DHT22;54019;61.746;16.106;2023-02-28T14:01:07;22.80;26.20
67101;DHT22;54019;61.746;16.106;2023-02-28T14:03:52;22.80;26.40
67101;DHT22;54019;61.746;16.106;2023-02-28T14:06:23;22.80;26.30
67101;DHT22;54019;61.746;16.106;2023-02-28T14:08:58;22.90;26.40
67101;DHT22;54019;61.746;16.106;2023-02-28T14:11:29;22.90;25.80
67101;DHT22;54019;61.746;16.106;2023-02-28T14:13:55;22.90;25.60
67101;DHT22;54019;61.746;16.106;2023-02-28T14:16:23;23.00;25.70
67101;DHT22;54019;61.746;16.106;2023-02-28T14:18:56;22.90;25.80
67101;DHT22;54019;61.746;16.106;2023-02-28T14:21:25;22.90;25.70
67101;DHT22;54019;61.746;16.106;2023-02-28T14:24:16;22.80;25.60
67101;DHT22;54019;61.746;16.106;2023-02-28T14:27:11;22.80;25.50
67101;DHT22;54019;61.746;16.106;2023-02-28T14:30:03;22.80;25.50
67101;DHT22;54019;61.746;16.106;2023-02-28T14:32:34;22.80;25.60
67101;DHT22;54019;61.746;16.106;2023-02-28T14:35:16;22.80;25.60
67101;DHT22;54019;61.746;16.106;2023-02-28T14:37:44;22.70;25.60
67101;DHT22;54019;61.746;16.106;2023-02-28T14:40:16;22.80;25.60
67101;DHT22;54019;61.746;16.106;2023-02-28T14:42:47;22.80;25.60
67101;DHT22;54019;61.746;16.106;2023-02-28T14:45:19;22.80;25.60
67101;DHT22;54019;61.746;16.106;2023-02-28T14:47:45;22.80;25.60
67101;DHT22;54019;61.746;16.106;2023-02-28T14:50:22;22.70;25.60
67101;DHT22;54019;61.746;16.106;2023-02-28T14:52:52;22.70;25.60
67101;DHT22;54019;61.746;16.106;2023-02-28T14:55:33;22.70;26.50
67101;DHT22;54019;61.746;16.106;2023-02-28T14:58:02;22.80;26.30
67101;DHT22;54019;61.746;16.106;2023-02-28T15:00:31;22.80;26.20
67101;DHT22;54019;61.746;16.106;2023-02-28T15:03:18;22.80;26.40
67101;DHT22;54019;61.746;16.106;2023-02-28T15:05:53;22.90;26.40
67101;DHT22;54019;61.746;16.106;2023-02-28T15:08:19;23.00;26.40
67101;DHT22;54019;61.746;16.106;2023-02-28T15:10:50;23.00;26.30
67101;DHT22;54019;61.746;16.106;2023-02-28T15:13:17;23.00;26.80
67101;DHT22;54019;61.746;16.106;2023-02-28T15:15:49;23.00;26.70
67101;DHT22;54019;61.746;16.106;2023-02-28T15:18:24;23.00;27.20
67101;DHT22;54019;61.746;16.106;2023-02-28T15:20:53;23.00;26.20
67101;DHT22;54019;61.746;16.106;2023-02-28T15:23:21;23.00;26.20
67101;DHT22;54019;61.746;16.106;2023-02-28T15:25:47;23.00;26.30
67101;DHT22;54019;61.746;16.106;2023-02-28T15:28:16;22.90;26.50
67101;DHT22;54019;61.746;16.106;2023-02-28T15:30:58;22.90;26.50
67101;DHT22;54019;61.746;16.106;2023-02-28T15:33:26;22.90;26.60
67101;DHT22;54019;61.746;16.106;2023-02-28T15:36:04;22.90;26.60
67101;DHT22;54019;61.746;16.106;2023-02-28T15:38:34;22.90;26.60
67101;DHT22;54019;61.746;16.106;2023-02-28T15:41:00;22.90;26.70
67101;DHT22;54019;61.746;16.106;2023-02-28T15:43:27;22.80;26.80
67101;DHT22;54019;61.746;16.106;2023-02-28T15:45:56;22.80;27.00
67101;DHT22;54019;61.746;16.106;2023-02-28T15:48:25;22.80;27.00
67101;DHT22;54019;61.746;16.106;2023-02-28T15:50:55;22.80;27.00
67101;DHT22;54019;61.746;16.106;2023-02-28T15:53:23;22.80;26.90
67101;DHT22;54019;61.746;16.106;2023-02-28T15:55:55;22.80;27.00